createdAt,value
2023-03-10T00:01:24.779Z,90606.63
2023-03-10T00:03:54.891Z,90625.31
2023-03-10T00:06:27.670Z,90621.47
2023-03-10T00:08:57.276Z,90605.03
2023-03-10T00:11:25.744Z,90617.34
2023-03-10T00:13:54.324Z,90596.63
2023-03-10T00:16:25.798Z,90612.66
2023-03-10T00:18:55.308Z,90583.53
2023-03-10T00:21:28.121Z,90594.25
2023-03-10T00:23:57.406Z,90591.06
2023-03-10T00:26:29.244Z,90610.28
2023-03-10T00:28:58.224Z,90602.84
2023-03-10T00:31:28.991Z,90608.69
2023-03-10T00:33:58.518Z,90609.53
2023-03-10T00:36:31.099Z,90607.38
2023-03-10T00:39:02.327Z,90624.34
2023-03-10T00:41:33.720Z,90621.13
2023-03-10T00:44:03.000Z,90612.91
2023-03-10T00:46:34.519Z,90601.50
2023-03-10T00:49:03.495Z,90603.50
2023-03-10T00:51:33.322Z,90608.63
2023-03-10T00:54:02.705Z,90579.75
2023-03-10T00:56:32.036Z,90586.91
2023-03-10T00:59:01.691Z,90574.06
2023-03-10T01:01:33.684Z,90589.81
2023-03-10T01:04:05.314Z,90587.22
2023-03-10T01:06:35.503Z,90581.03
2023-03-10T01:09:04.763Z,90584.03
2023-03-10T01:11:34.114Z,90581.34
2023-03-10T01:14:06.074Z,90590.91
2023-03-10T01:16:34.986Z,90587.22
2023-03-10T01:19:03.736Z,90578.56
2023-03-10T01:21:36.536Z,90576.97
2023-03-10T01:24:06.925Z,90594.03
2023-03-10T01:26:35.802Z,90583.81
2023-03-10T01:29:04.303Z,90596.91
2023-03-10T01:31:32.936Z,90576.03
2023-03-10T01:34:01.483Z,90566.28
2023-03-10T01:36:31.365Z,90554.53
2023-03-10T01:39:01.514Z,90550.66
2023-03-10T01:41:30.225Z,90542.44
2023-03-10T01:43:59.264Z,90544.88
2023-03-10T01:46:52.200Z,90542.84
2023-03-10T01:49:40.216Z,90541.19
2023-03-10T01:52:13.513Z,90526.91
2023-03-10T01:54:50.009Z,90533.09
2023-03-10T01:57:24.179Z,90543.94
2023-03-10T01:59:53.206Z,90518.44
2023-03-10T02:02:22.053Z,90542.31
2023-03-10T02:04:53.134Z,90525.56
2023-03-10T02:07:26.884Z,90539.97
2023-03-10T02:09:57.771Z,90520.38
2023-03-10T02:12:26.287Z,90531.47
2023-03-10T02:14:55.282Z,90520.56
2023-03-10T02:17:25.861Z,90522.09
2023-03-10T02:20:14.082Z,90512.03
2023-03-10T02:22:42.567Z,90522.94
2023-03-10T02:25:25.145Z,90533.84
2023-03-10T02:27:55.366Z,90515.91
2023-03-10T02:30:27.962Z,90524.31
2023-03-10T02:33:02.769Z,90520.28
2023-03-10T02:35:31.507Z,90520.53
2023-03-10T02:38:00.696Z,90537.91
2023-03-10T02:40:37.791Z,90528.84
2023-03-10T02:43:15.465Z,90523.88
2023-03-10T02:45:46.882Z,90513.66
2023-03-10T02:48:21.357Z,90510.34
2023-03-10T02:50:50.406Z,90514.22
2023-03-10T02:53:21.142Z,90511.84
2023-03-10T02:55:49.961Z,90497.88
2023-03-10T02:58:20.280Z,90495.66
2023-03-10T03:00:50.270Z,90491.97
2023-03-10T03:03:22.124Z,90499.09
2023-03-10T03:05:51.405Z,90495.75
2023-03-10T03:08:21.348Z,90483.91
2023-03-10T03:10:49.977Z,90496.41
2023-03-10T03:13:20.339Z,90483.16
2023-03-10T03:15:49.198Z,90495.75
2023-03-10T03:18:17.651Z,90475.44
2023-03-10T03:20:46.143Z,90471.31
2023-03-10T03:23:14.769Z,90483.31
2023-03-10T03:25:44.049Z,90460.91
2023-03-10T03:28:13.820Z,90455.31
2023-03-10T03:30:46.916Z,90461.34
2023-03-10T03:33:15.610Z,90441.97
2023-03-10T03:35:45.608Z,90442.19
2023-03-10T03:38:14.244Z,90451.47
2023-03-10T03:40:44.990Z,90448.13
2023-03-10T03:43:14.861Z,90455.06
2023-03-10T03:45:44.736Z,90441.91
2023-03-10T03:51:03.645Z,90432.84
2023-03-10T03:53:35.461Z,90429.16
2023-03-10T03:56:04.148Z,90414.47
2023-03-10T03:58:32.573Z,90408.34
2023-03-10T04:01:02.434Z,90415.56
2023-03-10T04:03:31.130Z,90408.16
2023-03-10T04:05:59.618Z,90410.53
2023-03-10T04:08:28.104Z,90404.56
2023-03-10T04:10:57.323Z,90396.66
2023-03-10T04:13:26.024Z,90384.44
2023-03-10T04:15:57.932Z,90380.50
2023-03-10T04:18:28.298Z,90383.28
2023-03-10T04:20:56.953Z,90380.41
2023-03-10T04:23:25.386Z,90389.72
2023-03-10T04:25:54.105Z,90383.50
2023-03-10T04:28:22.763Z,90379.75
2023-03-10T04:30:51.233Z,90370.44
2023-03-10T04:33:19.765Z,90356.53
2023-03-10T04:35:51.702Z,90361.88
2023-03-10T04:38:20.615Z,90359.53
2023-03-10T04:40:55.719Z,90354.69
2023-03-10T04:43:24.138Z,90356.69
2023-03-10T04:45:53.281Z,90353.84
2023-03-10T04:48:21.822Z,90357.06
2023-03-10T04:50:58.559Z,90351.00
2023-03-10T04:53:27.094Z,90353.78
2023-03-10T04:55:55.699Z,90353.28
2023-03-10T04:58:25.363Z,90360.25
2023-03-10T05:01:02.720Z,90351.00
2023-03-10T05:03:32.291Z,90351.09
2023-03-10T05:06:02.306Z,90353.84
2023-03-10T05:08:30.725Z,90361.75
2023-03-10T05:10:59.421Z,90363.69
2023-03-10T05:13:30.775Z,90376.84
2023-03-10T05:18:49.510Z,90324.41
2023-03-10T05:21:19.443Z,90330.69
2023-03-10T05:23:47.873Z,90317.72
2023-03-10T05:26:16.765Z,90307.53
2023-03-10T05:28:45.509Z,90307.91
2023-03-10T05:31:16.764Z,90302.34
2023-03-10T05:33:45.624Z,90298.09
2023-03-10T05:36:15.261Z,90301.63
2023-03-10T05:38:45.233Z,90310.38
2023-03-10T05:41:13.814Z,90312.63
2023-03-10T05:43:42.533Z,90320.28
2023-03-10T05:46:12.248Z,90302.97
2023-03-10T05:48:40.844Z,90295.63
2023-03-10T05:51:13.012Z,90293.59
2023-03-10T05:53:42.360Z,90279.03
2023-03-10T05:56:14.675Z,90307.22
2023-03-10T05:58:43.932Z,90296.44
2023-03-10T06:01:12.929Z,90302.16
2023-03-10T06:03:41.667Z,90293.88
2023-03-10T06:06:10.463Z,90277.34
2023-03-10T06:08:39.196Z,90268.97
2023-03-10T06:11:07.843Z,90262.94
2023-03-10T06:13:37.678Z,90255.00
2023-03-10T06:16:08.734Z,90259.59
2023-03-10T06:18:37.272Z,90256.13
2023-03-10T06:21:11.424Z,90254.50
2023-03-10T06:23:40.440Z,90246.97
2023-03-10T06:26:13.289Z,90254.09
2023-03-10T06:28:46.190Z,90252.69
2023-03-10T06:31:17.455Z,90260.59
2023-03-10T06:33:46.256Z,90261.75
2023-03-10T06:36:16.766Z,90262.38
2023-03-10T06:38:46.042Z,90254.63
2023-03-10T06:41:15.063Z,90255.06
2023-03-10T06:43:44.952Z,90256.69
2023-03-10T06:46:17.526Z,90247.22
2023-03-10T06:48:46.038Z,90247.78
2023-03-10T06:51:18.899Z,90244.44
2023-03-10T06:53:48.380Z,90228.13
2023-03-10T06:56:19.769Z,90227.56
2023-03-10T06:58:50.309Z,90235.72
2023-03-10T07:01:25.563Z,90252.72
2023-03-10T07:03:54.886Z,90253.84
2023-03-10T07:06:23.843Z,90255.25
2023-03-10T07:08:53.347Z,90272.72
2023-03-10T07:11:22.384Z,90281.09
2023-03-10T07:13:52.342Z,90265.41
2023-03-10T07:16:20.872Z,90269.72
2023-03-10T07:18:49.362Z,90273.63
2023-03-10T07:21:20.928Z,90270.50
2023-03-10T07:23:52.881Z,90275.03
2023-03-10T07:26:21.828Z,90275.47
2023-03-10T07:28:51.786Z,90305.28
2023-03-10T07:31:20.299Z,90296.84
2023-03-10T07:33:49.397Z,90311.41
2023-03-10T07:36:20.290Z,90288.28
2023-03-10T07:38:49.030Z,90308.97
2023-03-10T07:41:21.711Z,90310.00
2023-03-10T07:43:55.700Z,90326.06
2023-03-10T07:46:24.477Z,90323.91
2023-03-10T07:48:53.933Z,90323.47
2023-03-10T07:51:23.726Z,90317.19
2023-03-10T07:53:52.196Z,90327.59
2023-03-10T07:56:21.625Z,90328.50
2023-03-10T07:58:51.552Z,90337.31
2023-03-10T08:01:22.782Z,90321.56
2023-03-10T08:03:51.378Z,90321.38
2023-03-10T08:06:23.661Z,90330.00
2023-03-10T08:08:52.795Z,90324.06
2023-03-10T08:11:23.656Z,90321.72
2023-03-10T08:16:43.515Z,90343.84
2023-03-10T08:19:15.475Z,90345.59
2023-03-10T08:21:44.669Z,90340.16
2023-03-10T08:24:13.168Z,90329.38
2023-03-10T08:26:41.736Z,90358.72
2023-03-10T08:29:11.506Z,90337.25
2023-03-10T08:31:40.159Z,90338.44
2023-03-10T08:34:10.143Z,90350.84
2023-03-10T08:36:40.406Z,90334.59
2023-03-10T08:39:10.034Z,90364.09
2023-03-10T08:41:43.423Z,90369.81
2023-03-10T08:44:15.310Z,90359.41
2023-03-10T08:46:47.197Z,90357.88
2023-03-10T08:49:19.885Z,90356.03
2023-03-10T08:51:49.486Z,90377.66
2023-03-10T08:54:21.246Z,90364.16
2023-03-10T08:56:50.130Z,90375.31
2023-03-10T08:59:19.370Z,90376.31
2023-03-10T09:01:48.194Z,90359.03
2023-03-10T09:04:18.223Z,90398.03
2023-03-10T09:06:46.748Z,90386.16
2023-03-10T09:09:15.205Z,90403.25
2023-03-10T09:11:44.131Z,90382.88
2023-03-10T09:14:16.973Z,90392.09
2023-03-10T09:16:46.157Z,90409.72
2023-03-10T09:19:16.248Z,90398.31
2023-03-10T09:21:47.765Z,90391.13
2023-03-10T09:24:16.304Z,90386.72
2023-03-10T09:26:45.295Z,90377.00
2023-03-10T09:29:13.856Z,90382.97
2023-03-10T09:31:47.407Z,90377.69
2023-03-10T09:34:16.316Z,90391.69
2023-03-10T09:36:46.370Z,90398.50
2023-03-10T09:39:14.814Z,90391.28
2023-03-10T09:42:13.337Z,90389.28
2023-03-10T09:44:49.196Z,90396.91
2023-03-10T09:47:29.465Z,90387.50
2023-03-10T09:50:20.629Z,90411.75
2023-03-10T09:53:00.823Z,90396.13
2023-03-10T09:55:35.488Z,90387.25
2023-03-10T09:58:06.031Z,90390.09
2023-03-10T10:00:40.794Z,90400.56
2023-03-10T10:03:19.103Z,90405.84
2023-03-10T10:05:49.592Z,90403.94
2023-03-10T10:08:28.664Z,90399.47
2023-03-10T10:11:00.629Z,90403.50
2023-03-10T10:13:31.551Z,90397.63
2023-03-10T10:16:24.688Z,90415.81
2023-03-10T10:19:05.018Z,90407.09
2023-03-10T10:21:43.312Z,90419.13
2023-03-10T10:24:16.333Z,90414.66
2023-03-10T10:26:44.835Z,90445.91
2023-03-10T10:29:21.335Z,90462.47
2023-03-10T10:32:09.621Z,90434.50
2023-03-10T10:34:40.129Z,90436.84
2023-03-10T10:37:27.972Z,90427.34
2023-03-10T10:40:00.725Z,90434.16
2023-03-10T10:42:33.025Z,90450.38
2023-03-10T10:45:05.617Z,90438.34
2023-03-10T10:47:36.978Z,90426.94
2023-03-10T10:50:20.020Z,90440.00
2023-03-10T10:52:51.207Z,90443.28
2023-03-10T10:58:31.826Z,90414.63
2023-03-10T11:01:03.728Z,90423.41
2023-03-10T11:03:37.428Z,90431.13
2023-03-10T11:06:16.567Z,90423.84
2023-03-10T11:08:51.005Z,90448.97
2023-03-10T11:11:34.035Z,90426.81
2023-03-10T11:14:16.167Z,90448.41
2023-03-10T11:16:54.290Z,90442.06
2023-03-10T11:19:32.661Z,90439.94
2023-03-10T11:22:08.429Z,90435.34
2023-03-10T11:24:44.923Z,90440.00
2023-03-10T11:27:26.395Z,90450.66
2023-03-10T11:30:07.360Z,90463.13
2023-03-10T11:32:54.512Z,90470.44
2023-03-10T11:35:29.215Z,90474.75
2023-03-10T11:38:15.409Z,90480.47
2023-03-10T11:40:48.650Z,90483.63
2023-03-10T11:43:31.457Z,90490.78
2023-03-10T11:46:06.641Z,90498.06
2023-03-10T11:48:50.993Z,90506.25
2023-03-10T11:51:27.974Z,90504.31
2023-03-10T11:53:59.603Z,90486.94
2023-03-10T11:56:29.364Z,90485.72
2023-03-10T11:59:04.357Z,90481.56
2023-03-10T12:01:40.463Z,90489.50
2023-03-10T12:04:17.372Z,90466.63
2023-03-10T12:06:53.105Z,90475.34
2023-03-10T12:09:34.424Z,90495.94
2023-03-10T12:12:05.393Z,90482.06
2023-03-10T12:14:36.988Z,90469.03
2023-03-10T12:17:06.512Z,90484.19
2023-03-10T12:20:25.715Z,90473.94
2023-03-10T12:22:55.634Z,90466.38
2023-03-10T12:25:49.909Z,90482.84
2023-03-10T12:28:27.468Z,90498.63
2023-03-10T12:30:59.907Z,90494.63
2023-03-10T12:34:10.117Z,90517.16
2023-03-10T12:36:40.771Z,90509.13
2023-03-10T12:39:38.026Z,90499.38
2023-03-10T12:42:27.448Z,90495.25
2023-03-10T12:45:12.783Z,90517.03
2023-03-10T12:47:56.651Z,90496.53
2023-03-10T12:50:35.869Z,90510.09
2023-03-10T12:53:27.866Z,90494.22
2023-03-10T12:56:21.987Z,90491.16
2023-03-10T12:58:58.771Z,90511.44
2023-03-10T13:01:35.081Z,90503.56
2023-03-10T13:04:07.938Z,90487.03
2023-03-10T13:06:41.427Z,90497.50
2023-03-10T13:09:24.015Z,90529.03
2023-03-10T13:11:56.789Z,90507.81
2023-03-10T13:14:35.704Z,90520.38
2023-03-10T13:17:05.193Z,90497.22
2023-03-10T13:19:37.448Z,90561.66
2023-03-10T13:22:06.171Z,90521.22
2023-03-10T13:24:38.568Z,90511.69
2023-03-10T13:27:11.695Z,90522.59
2023-03-10T13:29:41.857Z,90567.66
2023-03-10T13:32:20.353Z,90553.56
2023-03-10T13:34:50.525Z,90563.31
2023-03-10T13:37:18.978Z,90538.97
2023-03-10T13:39:47.468Z,90562.31
2023-03-10T13:42:37.154Z,90553.03
2023-03-10T13:45:23.585Z,90554.63
2023-03-10T13:47:52.900Z,90580.53
2023-03-10T13:50:23.356Z,90572.06
2023-03-10T13:52:57.967Z,90602.78
2023-03-10T13:55:27.180Z,90603.25
2023-03-10T13:57:56.668Z,90568.84
2023-03-10T14:00:27.669Z,90550.91
2023-03-10T14:02:57.083Z,90570.13
2023-03-10T14:05:46.001Z,90598.47
2023-03-10T14:08:27.882Z,90589.47
2023-03-10T14:11:30.074Z,90607.19
2023-03-10T14:13:58.602Z,90599.25
2023-03-10T14:16:53.550Z,90603.50
2023-03-10T14:19:40.680Z,90610.19
2023-03-10T14:22:35.801Z,90618.22
2023-03-10T14:25:11.008Z,90621.81
2023-03-10T14:27:43.058Z,90601.59
2023-03-10T14:30:25.164Z,90637.94
2023-03-10T14:32:54.630Z,90682.56
2023-03-10T14:35:24.925Z,90629.69
2023-03-10T14:37:55.088Z,90672.56
2023-03-10T14:40:26.597Z,90641.38
2023-03-10T14:42:59.271Z,90675.94
2023-03-10T14:45:32.453Z,90621.22
2023-03-10T14:48:04.152Z,90633.50
2023-03-10T14:50:33.178Z,90641.13
2023-03-10T14:53:03.224Z,90642.38
2023-03-10T14:55:31.783Z,90660.03
2023-03-10T14:58:03.526Z,90637.22
2023-03-10T15:00:33.229Z,90664.25
2023-03-10T15:03:01.959Z,90660.00
2023-03-10T15:05:45.379Z,90663.00
2023-03-10T15:08:17.655Z,90659.00
2023-03-10T15:10:49.735Z,90692.31
2023-03-10T15:13:20.234Z,90692.00
2023-03-10T15:15:49.707Z,90712.09
2023-03-10T15:18:21.313Z,90698.00
2023-03-10T15:20:50.704Z,90692.84
2023-03-10T15:23:22.519Z,90687.19
2023-03-10T15:25:52.011Z,90695.06
2023-03-10T15:28:20.530Z,90670.84
2023-03-10T15:30:49.529Z,90663.97
2023-03-10T15:33:18.497Z,90647.47
2023-03-10T15:35:47.199Z,90671.38
2023-03-10T15:38:16.681Z,90681.44
2023-03-10T15:40:46.750Z,90689.75
2023-03-10T15:43:15.679Z,90700.59
2023-03-10T15:45:46.947Z,90682.88
2023-03-10T15:48:15.446Z,90663.00
2023-03-10T15:50:47.231Z,90671.34
2023-03-10T15:53:16.107Z,90667.56
2023-03-10T15:55:45.953Z,90678.84
2023-03-10T15:58:14.382Z,90681.09
2023-03-10T16:00:43.979Z,90683.31
2023-03-10T16:03:18.083Z,90692.78
2023-03-10T16:05:49.304Z,90691.63
2023-03-10T16:08:19.476Z,90701.63
2023-03-10T16:10:56.379Z,90700.19
2023-03-10T16:13:25.306Z,90714.03
2023-03-10T16:15:53.910Z,90699.66
2023-03-10T16:18:22.481Z,90684.53
2023-03-10T16:20:58.593Z,90676.47
2023-03-10T16:23:27.493Z,90681.34
2023-03-10T16:26:11.005Z,90689.34
2023-03-10T16:28:42.508Z,90708.38
2023-03-10T16:31:13.419Z,90716.41
2023-03-10T16:33:43.164Z,90689.66
2023-03-10T16:36:16.724Z,90711.06
2023-03-10T16:38:45.945Z,90731.22
2023-03-10T16:41:15.928Z,90698.84
2023-03-10T16:43:44.916Z,90717.53
2023-03-10T16:46:17.347Z,90728.22
2023-03-10T16:48:48.774Z,90751.19
2023-03-10T16:51:27.500Z,90700.06
2023-03-10T16:53:58.887Z,90706.97
2023-03-10T16:56:30.607Z,90705.94
2023-03-10T16:58:59.894Z,90719.59
2023-03-10T17:01:28.582Z,90717.34
2023-03-10T17:03:57.735Z,90720.47
2023-03-10T17:06:29.368Z,90730.38
2023-03-10T17:08:58.494Z,90740.09
2023-03-10T17:11:30.746Z,90715.56
2023-03-10T17:14:01.672Z,90725.16
2023-03-10T17:16:32.570Z,90684.03
2023-03-10T17:19:05.490Z,90720.69
2023-03-10T17:21:38.564Z,90714.56
2023-03-10T17:24:09.030Z,90737.34
2023-03-10T17:26:39.368Z,90711.47
2023-03-10T17:29:08.213Z,90736.25
2023-03-10T17:31:37.272Z,90735.88
2023-03-10T17:34:08.089Z,90750.00
2023-03-10T17:36:36.740Z,90706.84
2023-03-10T17:39:06.948Z,90731.34
2023-03-10T17:41:38.074Z,90752.69
2023-03-10T17:44:06.740Z,90773.28
2023-03-10T17:46:35.256Z,90807.59
2023-03-10T17:49:03.955Z,90763.13
2023-03-10T17:51:32.971Z,90787.09
2023-03-10T17:54:03.161Z,90752.75
2023-03-10T17:56:31.993Z,90766.84
2023-03-10T17:59:01.855Z,90743.59
2023-03-10T18:01:33.785Z,90745.06
2023-03-10T18:04:03.484Z,90764.91
2023-03-10T18:06:34.949Z,90721.47
2023-03-10T18:09:06.825Z,90739.75
2023-03-10T18:11:36.592Z,90748.91
2023-03-10T18:14:07.428Z,90727.91
2023-03-10T18:16:40.074Z,90748.09
2023-03-10T18:19:11.136Z,90793.03
2023-03-10T18:21:40.209Z,90743.16
2023-03-10T18:24:09.424Z,90754.91
2023-03-10T18:26:38.160Z,90766.69
2023-03-10T18:29:08.024Z,90771.63
2023-03-10T18:31:37.798Z,90792.22
2023-03-10T18:34:06.632Z,90783.13
2023-03-10T18:36:35.340Z,90791.50
2023-03-10T18:39:04.982Z,90819.72
2023-03-10T18:41:33.509Z,90816.69
2023-03-10T18:44:02.692Z,90815.94
2023-03-10T18:46:32.529Z,90803.03
2023-03-10T18:49:01.028Z,90825.50
2023-03-10T18:51:30.128Z,90809.88
2023-03-10T18:53:58.850Z,90851.03
2023-03-10T18:56:29.157Z,90851.78
2023-03-10T18:58:57.921Z,90854.44
2023-03-10T19:01:27.347Z,90823.63
2023-03-10T19:03:57.622Z,90876.22
2023-03-10T19:06:31.962Z,90854.88
2023-03-10T19:09:01.303Z,90880.38
2023-03-10T19:11:35.714Z,90873.91
2023-03-10T19:14:05.460Z,90856.41
2023-03-10T19:16:36.725Z,90862.88
2023-03-10T19:19:06.707Z,90900.59
2023-03-10T19:21:36.790Z,90876.59
2023-03-10T19:24:05.826Z,90865.59
2023-03-10T19:26:34.472Z,90898.69
2023-03-10T19:29:02.943Z,90902.50
2023-03-10T19:31:31.488Z,90899.06
2023-03-10T19:33:59.934Z,90891.44
2023-03-10T19:36:29.882Z,90939.81
2023-03-10T19:38:58.571Z,90915.84
2023-03-10T19:41:27.096Z,90921.94
2023-03-10T19:43:55.498Z,90930.28
2023-03-10T19:46:23.994Z,90934.50
2023-03-10T19:48:52.466Z,90934.09
2023-03-10T19:51:24.563Z,90908.22
2023-03-10T19:53:56.216Z,90919.25
2023-03-10T19:56:26.456Z,90894.13
2023-03-10T19:58:55.207Z,90910.13
2023-03-10T20:01:26.835Z,90909.34
2023-03-10T20:03:58.822Z,90895.66
2023-03-10T20:06:27.737Z,90937.13
2023-03-10T20:08:58.311Z,90982.03
2023-03-10T20:11:27.116Z,90930.28
2023-03-10T20:13:55.612Z,90932.56
2023-03-10T20:16:27.577Z,90931.03
2023-03-10T20:18:56.254Z,90947.41
2023-03-10T20:21:24.719Z,90969.81
2023-03-10T20:23:55.978Z,90942.06
2023-03-10T20:26:26.381Z,90964.13
2023-03-10T20:28:54.914Z,90957.69
2023-03-10T20:31:25.502Z,90956.50
2023-03-10T20:33:54.464Z,90968.31
2023-03-10T20:36:22.995Z,90967.56
2023-03-10T20:38:51.448Z,90956.16
2023-03-10T20:41:21.215Z,90973.25
2023-03-10T20:43:53.404Z,90962.22
2023-03-10T20:46:22.947Z,90973.63
2023-03-10T20:48:51.825Z,90996.09
2023-03-10T20:51:22.685Z,91006.34
2023-03-10T20:53:51.914Z,91008.59
2023-03-10T20:56:20.508Z,90994.53
2023-03-10T20:58:50.357Z,91039.00
2023-03-10T21:01:21.851Z,91020.41
2023-03-10T21:03:54.542Z,91012.38
2023-03-10T21:06:23.639Z,91034.00
2023-03-10T21:08:52.440Z,91046.25
2023-03-10T21:11:20.889Z,91037.88
2023-03-10T21:13:50.978Z,91033.25
2023-03-10T21:16:20.858Z,91038.56
2023-03-10T21:18:49.530Z,91078.88
2023-03-10T21:21:18.027Z,91106.19
2023-03-10T21:23:46.473Z,91100.94
2023-03-10T21:26:17.179Z,91153.78
2023-03-10T21:28:46.101Z,91149.91
2023-03-10T21:31:16.732Z,91120.25
2023-03-10T21:33:45.719Z,91131.63
2023-03-10T21:36:17.074Z,91132.47
2023-03-10T21:38:48.734Z,91129.28
2023-03-10T21:41:18.924Z,91129.31
2023-03-10T21:43:48.220Z,91159.75
2023-03-10T21:46:18.236Z,91158.88
2023-03-10T21:48:46.917Z,91174.09
2023-03-10T21:51:19.029Z,91158.13
2023-03-10T21:53:47.974Z,91182.06
2023-03-10T21:56:17.768Z,91165.34
2023-03-10T21:58:47.370Z,91181.69
2023-03-10T22:01:18.982Z,91188.47
2023-03-10T22:03:47.505Z,91196.53
2023-03-10T22:06:16.495Z,91194.16
2023-03-10T22:08:45.379Z,91200.69
2023-03-10T22:11:14.101Z,91182.31
2023-03-10T22:13:42.645Z,91174.34
2023-03-10T22:16:17.418Z,91165.19
2023-03-10T22:18:49.419Z,91173.91
2023-03-10T22:21:20.842Z,91166.97
2023-03-10T22:23:49.503Z,91173.81
2023-03-10T22:26:17.989Z,91174.16
2023-03-10T22:28:46.437Z,91177.13
2023-03-10T22:31:15.837Z,91181.41
2023-03-10T22:33:44.329Z,91177.56
2023-03-10T22:36:14.886Z,91173.72
2023-03-10T22:38:43.337Z,91170.66
2023-03-10T22:41:12.615Z,91153.91
2023-03-10T22:43:41.212Z,91192.72
2023-03-10T22:46:12.222Z,91213.66
2023-03-10T22:48:41.349Z,91185.88
2023-03-10T22:51:11.459Z,91188.94
2023-03-10T22:53:41.421Z,91193.53
2023-03-10T22:56:10.306Z,91201.09
2023-03-10T22:58:38.978Z,91219.38
2023-03-10T23:01:07.644Z,91204.22
2023-03-10T23:03:36.802Z,91245.63
2023-03-10T23:06:06.860Z,91234.13
2023-03-10T23:08:37.416Z,91235.34
2023-03-10T23:11:12.386Z,91238.72
2023-03-10T23:13:41.683Z,91225.34
2023-03-10T23:16:10.376Z,91249.28
2023-03-10T23:18:38.831Z,91246.69
2023-03-10T23:21:08.145Z,91227.63
2023-03-10T23:23:38.841Z,91250.13
2023-03-10T23:26:07.340Z,91261.75
2023-03-10T23:28:37.148Z,91261.13
2023-03-10T23:31:05.968Z,91264.28
2023-03-10T23:33:34.825Z,91265.22
2023-03-10T23:36:03.273Z,91269.16
2023-03-10T23:38:31.753Z,91264.97
2023-03-10T23:41:00.228Z,91279.13
2023-03-10T23:43:29.145Z,91285.06
2023-03-10T23:45:59.402Z,91289.97
2023-03-10T23:48:28.378Z,91293.03
2023-03-10T23:50:56.828Z,91297.50
2023-03-10T23:53:26.384Z,91294.28
2023-03-10T23:55:56.891Z,91290.25
2023-03-10T23:58:25.727Z,91295.88
